sensor_id;sensor_type;location;lat;lon;timestamp;P1;durP1;ratioP1;P2;durP2;ratioP2
22571;SDS011;11452;53.368;14.658;2023-02-28T00:03:47;3.93;;;1.63;;
22571;SDS011;11452;53.368;14.658;2023-02-28T00:08:53;3.13;;;1.97;;
22571;SDS011;11452;53.368;14.658;2023-02-28T00:13:58;5.07;;;2.00;;
22571;SDS011;11452;53.368;14.658;2023-02-28T00:19:04;3.77;;;2.00;;
22571;SDS011;11452;53.368;14.658;2023-02-28T00:24:09;2.90;;;1.83;;
22571;SDS011;11452;53.368;14.658;2023-02-28T00:29:15;3.27;;;1.90;;
22571;SDS011;11452;53.368;14.658;2023-02-28T00:34:20;6.50;;;2.17;;
22571;SDS011;11452;53.368;14.658;2023-02-28T00:39:25;4.27;;;2.40;;
22571;SDS011;11452;53.368;14.658;2023-02-28T00:44:31;2.70;;;1.60;;
22571;SDS011;11452;53.368;14.658;2023-02-28T00:49:37;4.33;;;2.20;;
22571;SDS011;11452;53.368;14.658;2023-02-28T00:54:44;3.50;;;2.00;;
22571;SDS011;11452;53.368;14.658;2023-02-28T00:59:50;2.93;;;2.20;;
22571;SDS011;11452;53.368;14.658;2023-02-28T01:04:57;3.30;;;2.03;;
22571;SDS011;11452;53.368;14.658;2023-02-28T01:10:05;4.57;;;2.40;;
22571;SDS011;11452;53.368;14.658;2023-02-28T01:15:11;3.17;;;1.90;;
22571;SDS011;11452;53.368;14.658;2023-02-28T01:20:17;2.43;;;2.00;;
22571;SDS011;11452;53.368;14.658;2023-02-28T01:25:22;3.90;;;2.50;;
22571;SDS011;11452;53.368;14.658;2023-02-28T01:30:28;6.00;;;2.57;;
22571;SDS011;11452;53.368;14.658;2023-02-28T01:35:35;6.90;;;2.53;;
22571;SDS011;11452;53.368;14.658;2023-02-28T01:40:40;2.00;;;1.63;;
22571;SDS011;11452;53.368;14.658;2023-02-28T01:45:46;5.30;;;2.30;;
22571;SDS011;11452;53.368;14.658;2023-02-28T01:50:52;3.90;;;2.60;;
22571;SDS011;11452;53.368;14.658;2023-02-28T01:55:59;3.70;;;2.77;;
22571;SDS011;11452;53.368;14.658;2023-02-28T02:01:06;5.23;;;2.57;;
22571;SDS011;11452;53.368;14.658;2023-02-28T02:06:12;7.60;;;3.03;;
22571;SDS011;11452;53.368;14.658;2023-02-28T02:11:18;4.27;;;2.57;;
22571;SDS011;11452;53.368;14.658;2023-02-28T02:38:37;4.63;;;3.87;;
22571;SDS011;11452;53.368;14.658;2023-02-28T02:49:04;6.43;;;3.73;;
22571;SDS011;11452;53.368;14.658;2023-02-28T02:59:32;6.37;;;4.07;;
22571;SDS011;11452;53.368;14.658;2023-02-28T03:04:45;4.60;;;3.10;;
22571;SDS011;11452;53.368;14.658;2023-02-28T03:09:53;3.00;;;2.10;;
22571;SDS011;11452;53.368;14.658;2023-02-28T03:15:06;2.73;;;2.17;;
22571;SDS011;11452;53.368;14.658;2023-02-28T03:31:03;3.23;;;2.10;;
22571;SDS011;11452;53.368;14.658;2023-02-28T03:36:12;3.63;;;2.20;;
22571;SDS011;11452;53.368;14.658;2023-02-28T03:41:22;3.93;;;2.47;;
22571;SDS011;11452;53.368;14.658;2023-02-28T03:46:32;3.00;;;2.20;;
22571;SDS011;11452;53.368;14.658;2023-02-28T03:51:40;3.70;;;2.30;;
22571;SDS011;11452;53.368;14.658;2023-02-28T03:56:50;6.23;;;2.40;;
22571;SDS011;11452;53.368;14.658;2023-02-28T04:01:57;4.33;;;2.20;;
22571;SDS011;11452;53.368;14.658;2023-02-28T04:07:04;3.47;;;2.27;;
22571;SDS011;11452;53.368;14.658;2023-02-28T04:12:13;4.63;;;3.03;;
22571;SDS011;11452;53.368;14.658;2023-02-28T04:17:18;2.50;;;2.27;;
22571;SDS011;11452;53.368;14.658;2023-02-28T04:22:24;4.03;;;2.47;;
22571;SDS011;11452;53.368;14.658;2023-02-28T04:27:32;3.67;;;2.10;;
22571;SDS011;11452;53.368;14.658;2023-02-28T04:32:38;4.47;;;2.10;;
22571;SDS011;11452;53.368;14.658;2023-02-28T04:37:44;5.27;;;2.17;;
22571;SDS011;11452;53.368;14.658;2023-02-28T04:42:49;4.23;;;2.37;;
22571;SDS011;11452;53.368;14.658;2023-02-28T04:47:55;4.50;;;2.70;;
22571;SDS011;11452;53.368;14.658;2023-02-28T04:53:00;5.30;;;2.87;;
22571;SDS011;11452;53.368;14.658;2023-02-28T04:58:06;4.73;;;2.37;;
22571;SDS011;11452;53.368;14.658;2023-02-28T05:03:12;2.33;;;1.97;;
22571;SDS011;11452;53.368;14.658;2023-02-28T05:08:18;4.13;;;2.23;;
22571;SDS011;11452;53.368;14.658;2023-02-28T05:13:24;2.73;;;1.83;;
22571;SDS011;11452;53.368;14.658;2023-02-28T05:18:30;2.70;;;2.40;;
22571;SDS011;11452;53.368;14.658;2023-02-28T05:23:36;4.50;;;2.50;;
22571;SDS011;11452;53.368;14.658;2023-02-28T05:28:41;2.80;;;1.70;;
22571;SDS011;11452;53.368;14.658;2023-02-28T05:33:47;3.53;;;2.23;;
22571;SDS011;11452;53.368;14.658;2023-02-28T05:38:53;2.43;;;2.10;;
22571;SDS011;11452;53.368;14.658;2023-02-28T05:43:58;3.73;;;1.90;;
22571;SDS011;11452;53.368;14.658;2023-02-28T05:49:04;3.70;;;1.93;;
22571;SDS011;11452;53.368;14.658;2023-02-28T05:54:10;3.87;;;2.27;;
22571;SDS011;11452;53.368;14.658;2023-02-28T05:59:16;3.53;;;1.83;;
22571;SDS011;11452;53.368;14.658;2023-02-28T06:04:26;2.70;;;2.20;;
22571;SDS011;11452;53.368;14.658;2023-02-28T06:09:34;2.77;;;2.30;;
22571;SDS011;11452;53.368;14.658;2023-02-28T06:14:39;3.97;;;2.83;;
22571;SDS011;11452;53.368;14.658;2023-02-28T06:19:45;4.57;;;2.77;;
22571;SDS011;11452;53.368;14.658;2023-02-28T06:24:51;2.77;;;2.07;;
22571;SDS011;11452;53.368;14.658;2023-02-28T06:29:58;5.03;;;2.33;;
22571;SDS011;11452;53.368;14.658;2023-02-28T06:35:04;4.97;;;2.10;;
22571;SDS011;11452;53.368;14.658;2023-02-28T06:40:10;5.40;;;3.00;;
22571;SDS011;11452;53.368;14.658;2023-02-28T06:45:16;5.57;;;2.70;;
22571;SDS011;11452;53.368;14.658;2023-02-28T06:50:22;6.03;;;3.70;;
22571;SDS011;11452;53.368;14.658;2023-02-28T06:55:28;5.53;;;3.23;;
22571;SDS011;11452;53.368;14.658;2023-02-28T07:00:33;5.03;;;3.47;;
22571;SDS011;11452;53.368;14.658;2023-02-28T07:05:39;3.93;;;2.57;;
22571;SDS011;11452;53.368;14.658;2023-02-28T07:10:45;4.17;;;2.47;;
22571;SDS011;11452;53.368;14.658;2023-02-28T07:15:58;6.73;;;3.67;;
22571;SDS011;11452;53.368;14.658;2023-02-28T07:21:20;6.47;;;3.67;;
22571;SDS011;11452;53.368;14.658;2023-02-28T07:26:26;5.13;;;3.57;;
22571;SDS011;11452;53.368;14.658;2023-02-28T07:31:32;5.57;;;3.53;;
22571;SDS011;11452;53.368;14.658;2023-02-28T07:36:38;6.03;;;4.10;;
22571;SDS011;11452;53.368;14.658;2023-02-28T07:41:43;3.77;;;2.93;;
22571;SDS011;11452;53.368;14.658;2023-02-28T07:46:48;5.73;;;4.10;;
22571;SDS011;11452;53.368;14.658;2023-02-28T07:51:54;5.67;;;4.47;;
22571;SDS011;11452;53.368;14.658;2023-02-28T07:57:00;12.47;;;5.70;;
22571;SDS011;11452;53.368;14.658;2023-02-28T08:02:06;9.17;;;6.13;;
22571;SDS011;11452;53.368;14.658;2023-02-28T08:07:13;17.27;;;11.83;;
22571;SDS011;11452;53.368;14.658;2023-02-28T08:12:20;11.70;;;9.20;;
22571;SDS011;11452;53.368;14.658;2023-02-28T08:17:25;17.90;;;9.60;;
22571;SDS011;11452;53.368;14.658;2023-02-28T08:22:31;14.60;;;10.23;;
22571;SDS011;11452;53.368;14.658;2023-02-28T08:27:36;19.67;;;11.37;;
22571;SDS011;11452;53.368;14.658;2023-02-28T08:32:42;22.03;;;12.60;;
22571;SDS011;11452;53.368;14.658;2023-02-28T08:37:48;21.83;;;15.20;;
22571;SDS011;11452;53.368;14.658;2023-02-28T08:42:54;28.40;;;16.53;;
22571;SDS011;11452;53.368;14.658;2023-02-28T08:47:59;25.40;;;16.13;;
22571;SDS011;11452;53.368;14.658;2023-02-28T08:53:05;20.77;;;14.43;;
22571;SDS011;11452;53.368;14.658;2023-02-28T08:58:10;10.67;;;8.07;;
22571;SDS011;11452;53.368;14.658;2023-02-28T09:03:16;16.33;;;9.60;;
22571;SDS011;11452;53.368;14.658;2023-02-28T09:08:24;10.80;;;7.10;;
22571;SDS011;11452;53.368;14.658;2023-02-28T09:13:31;11.87;;;7.87;;
22571;SDS011;11452;53.368;14.658;2023-02-28T09:18:37;7.43;;;5.73;;
22571;SDS011;11452;53.368;14.658;2023-02-28T09:23:44;9.80;;;5.50;;
22571;SDS011;11452;53.368;14.658;2023-02-28T09:28:53;9.47;;;6.33;;
22571;SDS011;11452;53.368;14.658;2023-02-28T09:33:59;18.87;;;11.63;;
22571;SDS011;11452;53.368;14.658;2023-02-28T09:39:05;17.67;;;11.03;;
22571;SDS011;11452;53.368;14.658;2023-02-28T09:44:12;20.20;;;13.47;;
22571;SDS011;11452;53.368;14.658;2023-02-28T09:49:22;21.40;;;12.33;;
22571;SDS011;11452;53.368;14.658;2023-02-28T09:54:29;19.80;;;10.27;;
22571;SDS011;11452;53.368;14.658;2023-02-28T10:00:03;13.23;;;8.93;;
22571;SDS011;11452;53.368;14.658;2023-02-28T10:05:22;12.30;;;8.00;;
22571;SDS011;11452;53.368;14.658;2023-02-28T10:10:39;13.17;;;8.20;;
22571;SDS011;11452;53.368;14.658;2023-02-28T10:15:47;9.90;;;6.93;;
22571;SDS011;11452;53.368;14.658;2023-02-28T10:20:55;10.13;;;5.67;;
22571;SDS011;11452;53.368;14.658;2023-02-28T10:26:24;9.27;;;5.77;;
22571;SDS011;11452;53.368;14.658;2023-02-28T10:31:17;7.07;;;3.83;;
22571;SDS011;11452;53.368;14.658;2023-02-28T10:36:25;7.40;;;4.30;;
22571;SDS011;11452;53.368;14.658;2023-02-28T10:41:33;9.13;;;4.70;;
22571;SDS011;11452;53.368;14.658;2023-02-28T10:46:40;7.70;;;4.13;;
22571;SDS011;11452;53.368;14.658;2023-02-28T10:51:47;7.17;;;4.40;;
22571;SDS011;11452;53.368;14.658;2023-02-28T10:57:06;5.70;;;3.93;;
22571;SDS011;11452;53.368;14.658;2023-02-28T11:02:29;4.93;;;3.27;;
22571;SDS011;11452;53.368;14.658;2023-02-28T11:07:37;5.60;;;4.00;;
22571;SDS011;11452;53.368;14.658;2023-02-28T11:12:45;5.77;;;4.00;;
22571;SDS011;11452;53.368;14.658;2023-02-28T11:17:54;5.13;;;3.23;;
22571;SDS011;11452;53.368;14.658;2023-02-28T11:23:02;6.80;;;3.03;;
22571;SDS011;11452;53.368;14.658;2023-02-28T11:33:52;3.43;;;2.70;;
22571;SDS011;11452;53.368;14.658;2023-02-28T11:39:00;4.00;;;2.67;;
22571;SDS011;11452;53.368;14.658;2023-02-28T11:44:27;5.03;;;2.90;;
22571;SDS011;11452;53.368;14.658;2023-02-28T11:49:38;5.27;;;3.37;;
22571;SDS011;11452;53.368;14.658;2023-02-28T11:54:59;3.90;;;2.60;;
22571;SDS011;11452;53.368;14.658;2023-02-28T12:05:41;4.67;;;3.10;;
22571;SDS011;11452;53.368;14.658;2023-02-28T12:16:20;3.37;;;2.50;;
22571;SDS011;11452;53.368;14.658;2023-02-28T12:21:43;5.00;;;3.00;;
22571;SDS011;11452;53.368;14.658;2023-02-28T12:26:53;5.80;;;2.80;;
22571;SDS011;11452;53.368;14.658;2023-02-28T12:32:05;3.20;;;2.13;;
22571;SDS011;11452;53.368;14.658;2023-02-28T12:37:14;3.20;;;1.87;;
22571;SDS011;11452;53.368;14.658;2023-02-28T12:42:24;4.00;;;2.30;;
22571;SDS011;11452;53.368;14.658;2023-02-28T12:47:34;4.43;;;2.60;;
22571;SDS011;11452;53.368;14.658;2023-02-28T12:58:10;2.77;;;2.30;;
22571;SDS011;11452;53.368;14.658;2023-02-28T13:09:09;4.17;;;2.40;;
22571;SDS011;11452;53.368;14.658;2023-02-28T13:14:26;2.67;;;2.30;;
22571;SDS011;11452;53.368;14.658;2023-02-28T13:19:42;3.53;;;2.17;;
22571;SDS011;11452;53.368;14.658;2023-02-28T13:29:59;6.50;;;2.50;;
22571;SDS011;11452;53.368;14.658;2023-02-28T13:40:28;3.40;;;2.03;;
22571;SDS011;11452;53.368;14.658;2023-02-28T13:45:37;2.03;;;1.83;;
22571;SDS011;11452;53.368;14.658;2023-02-28T13:50:43;5.53;;;2.50;;
22571;SDS011;11452;53.368;14.658;2023-02-28T13:55:52;5.23;;;2.67;;
22571;SDS011;11452;53.368;14.658;2023-02-28T14:06:35;5.90;;;3.17;;
22571;SDS011;11452;53.368;14.658;2023-02-28T14:11:43;4.03;;;2.47;;
22571;SDS011;11452;53.368;14.658;2023-02-28T14:16:50;4.23;;;2.70;;
22571;SDS011;11452;53.368;14.658;2023-02-28T14:22:00;5.73;;;2.90;;
22571;SDS011;11452;53.368;14.658;2023-02-28T14:27:16;2.83;;;2.47;;
22571;SDS011;11452;53.368;14.658;2023-02-28T14:37:34;5.37;;;3.00;;
22571;SDS011;11452;53.368;14.658;2023-02-28T14:42:46;3.50;;;2.77;;
22571;SDS011;11452;53.368;14.658;2023-02-28T14:47:54;6.17;;;4.17;;
22571;SDS011;11452;53.368;14.658;2023-02-28T14:53:03;3.90;;;3.27;;
22571;SDS011;11452;53.368;14.658;2023-02-28T14:58:25;6.70;;;3.07;;
22571;SDS011;11452;53.368;14.658;2023-02-28T15:03:32;6.13;;;3.40;;
22571;SDS011;11452;53.368;14.658;2023-02-28T15:08:39;6.87;;;3.50;;
22571;SDS011;11452;53.368;14.658;2023-02-28T15:13:48;6.93;;;3.57;;
22571;SDS011;11452;53.368;14.658;2023-02-28T15:19:02;5.97;;;3.80;;
22571;SDS011;11452;53.368;14.658;2023-02-28T15:29:22;7.27;;;4.27;;
22571;SDS011;11452;53.368;14.658;2023-02-28T15:34:34;6.10;;;4.20;;
22571;SDS011;11452;53.368;14.658;2023-02-28T15:39:45;5.70;;;3.93;;
22571;SDS011;11452;53.368;14.658;2023-02-28T15:44:48;5.53;;;4.10;;
22571;SDS011;11452;53.368;14.658;2023-02-28T15:49:58;7.33;;;3.80;;
22571;SDS011;11452;53.368;14.658;2023-02-28T15:55:11;7.93;;;4.13;;
22571;SDS011;11452;53.368;14.658;2023-02-28T16:00:22;7.27;;;4.03;;
22571;SDS011;11452;53.368;14.658;2023-02-28T16:05:30;7.30;;;4.93;;
22571;SDS011;11452;53.368;14.658;2023-02-28T16:10:36;7.30;;;4.80;;
22571;SDS011;11452;53.368;14.658;2023-02-28T16:15:42;7.27;;;5.13;;
22571;SDS011;11452;53.368;14.658;2023-02-28T16:20:48;8.70;;;5.57;;
22571;SDS011;11452;53.368;14.658;2023-02-28T16:25:53;8.13;;;4.70;;
22571;SDS011;11452;53.368;14.658;2023-02-28T16:31:00;11.20;;;5.67;;
22571;SDS011;11452;53.368;14.658;2023-02-28T16:36:09;7.90;;;5.87;;
22571;SDS011;11452;53.368;14.658;2023-02-28T16:41:19;11.07;;;4.80;;
22571;SDS011;11452;53.368;14.658;2023-02-28T16:46:30;6.40;;;4.20;;
22571;SDS011;11452;53.368;14.658;2023-02-28T16:51:36;6.43;;;3.60;;
22571;SDS011;11452;53.368;14.658;2023-02-28T16:56:44;5.60;;;3.53;;
22571;SDS011;11452;53.368;14.658;2023-02-28T17:01:51;5.77;;;3.43;;
22571;SDS011;11452;53.368;14.658;2023-02-28T17:06:57;5.30;;;3.80;;
22571;SDS011;11452;53.368;14.658;2023-02-28T17:12:03;3.83;;;2.47;;
22571;SDS011;11452;53.368;14.658;2023-02-28T17:17:14;6.20;;;3.57;;
22571;SDS011;11452;53.368;14.658;2023-02-28T17:22:21;7.00;;;3.20;;
22571;SDS011;11452;53.368;14.658;2023-02-28T17:27:26;7.07;;;3.20;;
22571;SDS011;11452;53.368;14.658;2023-02-28T17:32:32;6.40;;;4.07;;
22571;SDS011;11452;53.368;14.658;2023-02-28T17:37:38;5.17;;;3.23;;
22571;SDS011;11452;53.368;14.658;2023-02-28T17:42:43;7.97;;;3.47;;
22571;SDS011;11452;53.368;14.658;2023-02-28T17:47:49;5.00;;;3.57;;
22571;SDS011;11452;53.368;14.658;2023-02-28T17:52:55;8.33;;;3.37;;
22571;SDS011;11452;53.368;14.658;2023-02-28T17:58:02;7.03;;;3.27;;
22571;SDS011;11452;53.368;14.658;2023-02-28T18:03:08;5.33;;;2.90;;
22571;SDS011;11452;53.368;14.658;2023-02-28T18:08:15;7.47;;;4.37;;
22571;SDS011;11452;53.368;14.658;2023-02-28T18:13:21;3.80;;;3.40;;
22571;SDS011;11452;53.368;14.658;2023-02-28T18:18:27;3.93;;;3.20;;
22571;SDS011;11452;53.368;14.658;2023-02-28T18:23:32;7.77;;;4.10;;
22571;SDS011;11452;53.368;14.658;2023-02-28T18:28:38;4.90;;;3.10;;
22571;SDS011;11452;53.368;14.658;2023-02-28T18:33:47;7.43;;;3.57;;
22571;SDS011;11452;53.368;14.658;2023-02-28T18:38:55;7.63;;;3.10;;
22571;SDS011;11452;53.368;14.658;2023-02-28T18:44:01;6.17;;;3.40;;
22571;SDS011;11452;53.368;14.658;2023-02-28T18:49:09;6.70;;;3.23;;
22571;SDS011;11452;53.368;14.658;2023-02-28T18:54:15;6.83;;;4.13;;
22571;SDS011;11452;53.368;14.658;2023-02-28T18:59:21;7.20;;;3.33;;
22571;SDS011;11452;53.368;14.658;2023-02-28T19:04:26;6.20;;;4.03;;
22571;SDS011;11452;53.368;14.658;2023-02-28T19:09:32;8.67;;;3.70;;
22571;SDS011;11452;53.368;14.658;2023-02-28T19:14:37;5.47;;;3.73;;
22571;SDS011;11452;53.368;14.658;2023-02-28T19:19:43;6.00;;;4.10;;
22571;SDS011;11452;53.368;14.658;2023-02-28T19:24:49;5.70;;;3.97;;
22571;SDS011;11452;53.368;14.658;2023-02-28T19:29:54;4.43;;;3.57;;
22571;SDS011;11452;53.368;14.658;2023-02-28T19:35:01;9.67;;;3.83;;
22571;SDS011;11452;53.368;14.658;2023-02-28T19:40:08;5.70;;;3.90;;
22571;SDS011;11452;53.368;14.658;2023-02-28T19:45:16;5.00;;;3.43;;
22571;SDS011;11452;53.368;14.658;2023-02-28T19:50:21;7.43;;;4.50;;
22571;SDS011;11452;53.368;14.658;2023-02-28T19:55:27;7.77;;;4.33;;
22571;SDS011;11452;53.368;14.658;2023-02-28T20:00:34;7.70;;;5.20;;
22571;SDS011;11452;53.368;14.658;2023-02-28T20:05:40;8.00;;;4.33;;
22571;SDS011;11452;53.368;14.658;2023-02-28T20:10:45;8.83;;;3.47;;
22571;SDS011;11452;53.368;14.658;2023-02-28T20:15:51;7.37;;;3.87;;
22571;SDS011;11452;53.368;14.658;2023-02-28T20:20:57;8.60;;;5.10;;
22571;SDS011;11452;53.368;14.658;2023-02-28T20:26:04;9.90;;;4.77;;
22571;SDS011;11452;53.368;14.658;2023-02-28T20:31:16;4.97;;;3.97;;
22571;SDS011;11452;53.368;14.658;2023-02-28T20:36:19;9.00;;;4.77;;
22571;SDS011;11452;53.368;14.658;2023-02-28T20:41:26;14.77;;;5.80;;
22571;SDS011;11452;53.368;14.658;2023-02-28T20:46:31;9.33;;;4.53;;
22571;SDS011;11452;53.368;14.658;2023-02-28T20:51:38;9.90;;;5.80;;
22571;SDS011;11452;53.368;14.658;2023-02-28T20:56:45;9.70;;;4.70;;
22571;SDS011;11452;53.368;14.658;2023-02-28T21:01:51;7.43;;;4.30;;
22571;SDS011;11452;53.368;14.658;2023-02-28T21:06:58;9.30;;;5.03;;
22571;SDS011;11452;53.368;14.658;2023-02-28T21:12:04;10.67;;;4.23;;
22571;SDS011;11452;53.368;14.658;2023-02-28T21:17:10;14.17;;;5.23;;
22571;SDS011;11452;53.368;14.658;2023-02-28T21:22:15;9.07;;;4.67;;
22571;SDS011;11452;53.368;14.658;2023-02-28T21:27:22;7.87;;;5.13;;
22571;SDS011;11452;53.368;14.658;2023-02-28T21:32:28;11.47;;;5.40;;
22571;SDS011;11452;53.368;14.658;2023-02-28T21:37:36;8.47;;;4.40;;
22571;SDS011;11452;53.368;14.658;2023-02-28T21:42:42;9.00;;;4.30;;
22571;SDS011;11452;53.368;14.658;2023-02-28T21:47:47;8.97;;;3.80;;
22571;SDS011;11452;53.368;14.658;2023-02-28T21:52:53;5.70;;;4.33;;
22571;SDS011;11452;53.368;14.658;2023-02-28T21:57:58;6.67;;;3.83;;
22571;SDS011;11452;53.368;14.658;2023-02-28T22:03:04;5.83;;;3.80;;
22571;SDS011;11452;53.368;14.658;2023-02-28T22:08:09;9.50;;;4.57;;
22571;SDS011;11452;53.368;14.658;2023-02-28T22:13:15;4.00;;;3.40;;
22571;SDS011;11452;53.368;14.658;2023-02-28T22:18:22;6.43;;;3.67;;
22571;SDS011;11452;53.368;14.658;2023-02-28T22:23:28;4.63;;;3.20;;
22571;SDS011;11452;53.368;14.658;2023-02-28T22:28:36;5.73;;;3.27;;
22571;SDS011;11452;53.368;14.658;2023-02-28T22:33:42;7.70;;;3.37;;
22571;SDS011;11452;53.368;14.658;2023-02-28T22:38:48;6.83;;;2.87;;
22571;SDS011;11452;53.368;14.658;2023-02-28T22:43:56;10.57;;;3.20;;
22571;SDS011;11452;53.368;14.658;2023-02-28T22:49:04;3.27;;;2.60;;
22571;SDS011;11452;53.368;14.658;2023-02-28T22:54:09;5.10;;;3.03;;
22571;SDS011;11452;53.368;14.658;2023-02-28T22:59:15;4.33;;;2.40;;
22571;SDS011;11452;53.368;14.658;2023-02-28T23:04:21;3.80;;;2.50;;
22571;SDS011;11452;53.368;14.658;2023-02-28T23:09:28;4.13;;;2.10;;
22571;SDS011;11452;53.368;14.658;2023-02-28T23:14:33;4.13;;;2.17;;
22571;SDS011;11452;53.368;14.658;2023-02-28T23:19:39;3.30;;;2.17;;
22571;SDS011;11452;53.368;14.658;2023-02-28T23:24:44;2.70;;;1.73;;
22571;SDS011;11452;53.368;14.658;2023-02-28T23:29:50;3.20;;;1.90;;
22571;SDS011;11452;53.368;14.658;2023-02-28T23:34:56;1.70;;;1.33;;
22571;SDS011;11452;53.368;14.658;2023-02-28T23:40:03;2.37;;;1.60;;
22571;SDS011;11452;53.368;14.658;2023-02-28T23:45:11;2.97;;;1.40;;
22571;SDS011;11452;53.368;14.658;2023-02-28T23:50:16;3.37;;;1.60;;
22571;SDS011;11452;53.368;14.658;2023-02-28T23:55:22;2.00;;;1.10;;
